Time;durP1;ratioP1;P1;durP2;ratioP2;P2;SDS_P1;SDS_P2;PMS_P1;PMS_P2;Temp;Humidity;BMP_temperature;BMP_pressure;BME280_temperature;BME280_humidity;BME280_pressure;Samples;Min_cycle;Max_cycle;Signal;HPM_P1;HPM_P2
2022/07/29 00:02:12;;;;;;;;;11.00;11.00;;;;;23.00;56.39;99605.19;6310809;20;3510684;-50
2022/07/29 00:04:41;;;;;;;;;14.00;12.00;;;;;22.94;56.58;99604.00;6317222;20;2795058;-54
2022/07/29 00:07:10;;;;;;;;;12.00;10.00;;;;;22.75;57.55;99601.66;6309577;20;3512714;-53
2022/07/29 00:09:41;;;;;;;;;12.00;12.00;;;;;22.90;56.34;99599.88;6309628;20;3505487;-55
2022/07/29 00:12:20;;;;;;;;;14.33;13.00;;;;;22.82;56.86;99601.81;6311380;20;2483693;-54
2022/07/29 00:14:56;;;;;;;;;12.33;12.00;;;;;22.57;58.05;99591.78;6313715;20;2806555;-52
2022/07/29 00:17:25;;;;;;;;;13.67;13.33;;;;;22.66;58.12;99587.13;6309763;20;3521174;-51
2022/07/29 00:19:53;;;;;;;;;11.00;11.00;;;;;22.62;57.40;99587.66;6279210;20;3513798;-54
2022/07/29 00:22:22;;;;;;;;;11.67;11.67;;;;;22.61;57.15;99588.69;6277464;20;3524233;-52
2022/07/29 00:24:51;;;;;;;;;12.33;11.00;;;;;22.51;58.53;99584.28;6277798;20;3511252;-55
2022/07/29 00:27:19;;;;;;;;;13.00;12.00;;;;;22.62;57.96;99591.25;6277798;20;3510635;-52
2022/07/29 00:29:48;;;;;;;;;14.00;13.00;;;;;22.36;58.32;99583.25;6313627;20;3519153;-54
2022/07/29 00:32:17;;;;;;;;;12.00;12.00;;;;;22.39;58.93;99593.00;6315029;20;2483605;-50
2022/07/29 00:37:34;;;;;;;;;14.33;13.00;;;;;22.34;58.42;99590.78;6310614;20;3529433;-54
2022/07/29 00:40:04;;;;;;;;;14.00;14.00;;;;;22.35;58.42;99589.75;6283274;20;3527474;-54
2022/07/29 00:42:52;;;;;;;;;12.33;12.33;;;;;22.25;59.54;99591.81;6282543;20;3515909;-53
2022/07/29 00:45:21;;;;;;;;;12.00;12.00;;;;;22.22;59.12;99589.41;6283397;20;3503745;-55
2022/07/29 00:47:50;;;;;;;;;17.00;14.00;;;;;22.44;58.26;99583.25;6284900;20;3545049;-53
2022/07/29 00:50:19;;;;;;;;;12.33;12.33;;;;;22.33;58.65;99594.56;6284926;20;3543973;-55
2022/07/29 00:52:48;;;;;;;;;13.00;12.00;;;;;22.05;60.02;99588.53;6284314;20;3440895;-51
2022/07/29 00:55:17;;;;;;;;;11.00;11.00;;;;;21.91;60.75;99588.19;6313780;20;2483581;-53
2022/07/29 00:57:47;;;;;;;;;13.00;13.00;;;;;21.90;60.29;99588.34;6311994;20;2484043;-49
2022/07/29 01:00:25;;;;;;;;;12.00;12.00;;;;;21.98;60.07;99582.03;6315721;20;3540848;-53
2022/07/29 01:02:54;;;;;;;;;12.00;12.00;;;;;21.70;61.21;99577.75;6285115;20;3523286;-51
2022/07/29 01:05:27;;;;;;;;;12.00;11.00;;;;;21.58;61.42;99581.81;6282869;20;3515993;-52
2022/07/29 01:08:17;;;;;;;;;14.33;13.00;;;;;21.47;62.34;99565.75;6281008;20;2483649;-52
2022/07/29 01:10:47;;;;;;;;;14.00;13.00;;;;;21.36;62.89;99571.50;6312064;20;3536363;-52
2022/07/29 01:13:17;;;;;;;;;14.00;12.67;;;;;21.54;62.33;99576.84;6283368;20;2485845;-55
2022/07/29 01:16:01;;;;;;;;;12.67;12.00;;;;;21.47;62.65;99571.22;6319155;20;3526412;-54
2022/07/29 01:18:42;;;;;;;;;13.00;12.00;;;;;21.58;62.40;99573.63;6317966;20;2806506;-55
2022/07/29 01:21:38;;;;;;;;;11.00;11.00;;;;;21.55;62.66;99573.97;6314442;20;2483789;-51
2022/07/29 01:25:00;;;;;;;;;17.00;14.00;;;;;21.35;63.08;99561.59;6312883;20;3528450;-54
2022/07/29 01:28:05;;;;;;;;;13.00;13.00;;;;;21.48;63.11;99567.47;6314194;20;2797298;-57
2022/07/29 01:30:39;;;;;;;;;13.67;12.67;;;;;21.13;64.06;99561.19;6312616;20;3518983;-51
2022/07/29 01:33:48;;;;;;;;;13.33;12.00;;;;;21.13;63.90;99558.47;6277338;20;3506493;-54
2022/07/29 01:36:17;;;;;;;;;14.00;13.00;;;;;21.10;64.50;99564.25;6311700;20;2483612;-54
2022/07/29 01:39:06;;;;;;;;;12.67;11.33;;;;;20.75;65.74;99565.31;6281806;20;3520047;-56
2022/07/29 01:41:43;;;;;;;;;16.33;13.67;;;;;20.62;65.68;99565.75;6280363;20;3546085;-56
2022/07/29 01:44:26;;;;;;;;;12.67;12.67;;;;;20.63;66.03;99564.72;6279823;20;2801346;-54
2022/07/29 01:47:05;;;;;;;;;15.00;13.33;;;;;20.80;65.53;99572.00;6311604;20;3535064;-54
2022/07/29 01:49:43;;;;;;;;;14.50;13.00;;;;;20.70;65.41;99568.53;6286040;20;2780493;-52
2022/07/29 01:52:42;;;;;;;;;17.00;16.00;;;;;20.54;66.40;99568.44;6283803;20;3553336;-53
2022/07/29 01:55:16;;;;;;;;;17.00;14.00;;;;;20.52;66.17;99571.28;6282479;20;2814245;-52
2022/07/29 01:57:49;;;;;;;;;12.33;11.67;;;;;20.43;66.96;99565.94;6308097;20;3524282;-54
2022/07/29 02:00:18;;;;;;;;;13.00;13.00;;;;;20.35;66.93;99567.59;6281165;20;2483574;-54
2022/07/29 02:02:49;;;;;;;;;14.00;12.33;;;;;20.57;65.87;99573.56;6283626;20;3531551;-55
2022/07/29 02:05:22;;;;;;;;;11.67;11.67;;;;;20.37;67.12;99564.69;6285216;20;2802481;-54
2022/07/29 02:07:53;;;;;;;;;12.67;12.67;;;;;20.52;66.78;99564.97;6310063;20;3531501;-52
2022/07/29 02:10:28;;;;;;;;;13.00;12.33;;;;;20.30;67.09;99553.59;6281510;20;3517964;-51
2022/07/29 02:12:58;;;;;;;;;16.00;15.00;;;;;20.37;66.45;99557.38;6312108;20;2483590;-55
2022/07/29 02:15:32;;;;;;;;;13.00;13.00;;;;;20.17;67.64;99559.47;6280253;20;3520115;-52
2022/07/29 02:18:17;;;;;;;;;13.67;12.00;;;;;20.45;67.07;99553.84;6277369;20;3516885;-51
2022/07/29 02:20:53;;;;;;;;;14.50;13.50;;;;;20.08;67.80;99551.38;6284735;20;2795278;-53
2022/07/29 02:23:24;;;;;;;;;14.67;13.00;;;;;20.06;67.93;99550.69;6280254;20;3528463;-53
2022/07/29 02:25:57;;;;;;;;;14.50;13.00;;;;;20.07;67.81;99555.13;6278029;20;2798168;-54
2022/07/29 02:28:31;;;;;;;;;17.00;14.67;;;;;19.90;68.47;99545.94;6281639;20;3546099;-51
2022/07/29 02:31:03;;;;;;;;;15.00;14.00;;;;;19.74;69.58;99547.53;6281580;20;3532520;-51
2022/07/29 02:33:32;;;;;;;;;15.00;15.00;;;;;20.36;67.09;99555.66;6278211;20;2483610;-51
2022/07/29 02:36:02;;;;;;;;;14.67;13.67;;;;;20.54;65.76;99561.09;6282593;20;2796372;-52
2022/07/29 02:38:50;;;;;;;;;17.33;15.00;;;;;20.20;68.07;99552.00;6311651;20;3543040;-49
2022/07/29 02:41:35;;;;;;;;;14.00;14.00;;;;;20.02;68.73;99558.31;6278256;20;2489832;-52
2022/07/29 02:44:16;;;;;;;;;13.00;13.00;;;;;20.17;67.47;99561.34;6279127;20;3522126;-53
2022/07/29 02:47:05;;;;;;;;;13.00;12.00;;;;;19.99;69.15;99565.97;6314449;20;2791182;-51
2022/07/29 02:50:04;;;;;;;;;13.67;13.33;;;;;19.80;69.56;99558.81;6315596;20;2806691;-51
2022/07/29 02:52:59;;;;;;;;;11.00;10.67;;;;;19.69;69.46;99557.19;6309586;20;3517082;-54
2022/07/29 02:55:55;;;;;;;;;13.50;12.50;;;;;19.88;69.07;99557.03;6278663;20;2489852;-50
2022/07/29 02:58:45;;;;;;;;;20.50;18.50;;;;;19.69;69.36;99551.72;6277806;20;2483651;-52
2022/07/29 03:01:21;;;;;;;;;17.50;14.50;;;;;19.43;70.43;99548.88;6274111;20;2485828;-52
2022/07/29 03:03:54;;;;;;;;;14.67;14.00;;;;;19.47;70.48;99548.44;6278715;20;3533630;-53
2022/07/29 03:06:27;;;;;;;;;13.67;13.67;;;;;19.33;70.89;99548.97;6268677;20;3531640;-57
2022/07/29 03:09:08;;;;;;;;;13.00;13.00;;;;;19.53;69.95;99547.81;6278733;20;3523175;-53
2022/07/29 03:11:42;;;;;;;;;14.00;14.00;;;;;19.72;69.56;99552.28;6280313;20;2483582;-53
2022/07/29 03:14:19;;;;;;;;;15.50;14.50;;;;;19.78;69.15;99545.34;6279794;20;2500258;-54
2022/07/29 03:16:50;;;;;;;;;18.00;15.00;;;;;19.68;69.65;99544.59;6279130;20;3541937;-54
2022/07/29 03:19:20;;;;;;;;;15.00;13.50;;;;;19.58;70.84;99549.22;6278901;20;2805555;-54
2022/07/29 03:21:48;;;;;;;;;14.00;14.00;;;;;20.08;68.54;99546.78;6275894;20;2489825;-55
2022/07/29 03:24:35;;;;;;;;;17.00;16.00;;;;;19.78;69.61;99549.97;6281374;20;2823589;-54
2022/07/29 03:27:05;;;;;;;;;14.67;14.67;;;;;19.67;69.86;99541.00;6278195;20;3536787;-50
2022/07/29 03:29:34;;;;;;;;;16.00;14.50;;;;;19.32;71.22;99546.41;6282442;20;2810705;-52
2022/07/29 03:32:06;;;;;;;;;7.80;7.80;;;;;19.46;70.70;99552.19;6307810;20;2732632;-52
2022/07/29 03:34:37;;;;;;;;;19.33;18.00;;;;;19.32;71.12;99555.41;6311333;20;2483607;-49
2022/07/29 03:37:06;;;;;;;;;13.50;13.50;;;;;19.29;71.68;99553.00;6312032;20;2494001;-53
2022/07/29 03:39:41;;;;;;;;;14.50;14.50;;;;;19.21;71.95;99552.91;6283296;20;2491945;-52
2022/07/29 03:42:15;;;;;;;;;13.00;12.00;;;;;19.32;71.50;99549.13;6276397;20;3513771;-55
2022/07/29 03:44:48;;;;;;;;;15.50;15.50;;;;;19.56;71.07;99551.22;6277522;20;2821112;-56
2022/07/29 03:47:25;;;;;;;;;16.00;16.00;;;;;19.80;69.98;99556.09;6277305;20;2825282;-57
2022/07/29 03:50:16;;;;;;;;;21.67;19.67;;;;;19.79;68.98;99555.22;6282916;20;3579484;-52
2022/07/29 03:52:47;;;;;;;;;21.33;20.00;;;;;19.99;68.53;99557.78;6276487;20;2854482;-56
2022/07/29 03:55:16;;;;;;;;;17.67;16.33;;;;;19.94;68.57;99561.00;6315239;20;3563794;-53
2022/07/29 03:57:47;;;;;;;;;17.67;16.67;;;;;19.74;69.88;99560.28;6308271;20;3564924;-53
2022/07/29 04:00:16;;;;;;;;;20.67;16.67;;;;;19.70;69.51;99559.75;6283490;20;3559658;-54
2022/07/29 04:02:48;;;;;;;;;17.00;15.67;;;;;19.81;70.03;99558.66;6316214;20;3558729;-52
2022/07/29 04:05:19;;;;;;;;;16.33;16.00;;;;;19.85;70.17;99565.53;6312926;20;3560669;-52
2022/07/29 04:07:48;;;;;;;;;16.00;14.00;;;;;20.03;68.92;99559.19;6284508;20;2483574;-54
2022/07/29 04:10:18;;;;;;;;;15.67;14.33;;;;;20.17;67.89;99556.75;6284924;20;3541929;-52
2022/07/29 04:13:00;;;;;;;;;35.33;32.00;;;;;19.93;69.42;99559.25;6287597;20;3593974;-52
2022/07/29 04:15:29;;;;;;;;;44.00;38.50;;;;;20.36;67.78;99561.13;6283876;20;2839852;-51
2022/07/29 04:17:59;;;;;;;;;54.00;44.00;;;;;20.38;66.84;99559.09;6286150;20;3596083;-52
2022/07/29 04:20:29;;;;;;;;;47.00;38.33;;;;;20.35;67.35;99561.28;6282469;20;2845276;-51
2022/07/29 04:22:58;;;;;;;;;45.50;33.00;;;;;20.45;66.66;99559.28;6319908;20;3630574;-51
2022/07/29 04:25:28;;;;;;;;;6.80;5.00;;;;;20.48;67.34;99561.69;6339198;20;2735670;-52
2022/07/29 04:27:59;;;;;;;;;27.67;27.33;;;;;20.68;66.48;99565.09;6317849;20;3595040;-53
2022/07/29 04:30:30;;;;;;;;;36.67;30.33;;;;;20.76;66.16;99556.09;6287289;20;3593974;-57
2022/07/29 04:33:02;;;;;;;;;27.33;26.00;;;;;20.71;67.07;99564.78;6282834;20;3590929;-51
2022/07/29 04:35:37;;;;;;;;;22.67;20.33;;;;;20.80;66.07;99566.53;6287943;20;3572193;-54
2022/07/29 04:38:17;;;;;;;;;18.00;18.00;;;;;20.96;65.82;99567.63;6286838;20;3562719;-49
2022/07/29 04:40:49;;;;;;;;;19.38;19.38;;;;;21.03;65.79;99569.50;6307725;20;3566879;-52
2022/07/29 04:43:18;;;;;;;;;20.00;16.33;;;;;20.88;66.04;99564.84;6284936;20;3557538;-51
2022/07/29 04:45:50;;;;;;;;;20.00;20.00;;;;;21.00;65.30;99569.84;6316053;20;3578353;-53
2022/07/29 04:48:19;;;;;;;;;16.50;15.00;;;;;21.05;65.10;99567.47;6281262;20;2818097;-53
2022/07/29 04:50:56;;;;;;;;;17.50;16.50;;;;;21.27;64.21;99570.63;6282281;20;2827392;-52
2022/07/29 04:53:26;;;;;;;;;15.67;15.67;;;;;21.20;64.70;99581.38;6284507;20;3552404;-51
2022/07/29 04:55:54;;;;;;;;;19.00;17.00;;;;;21.30;64.07;99580.34;6283678;20;2839873;-56
2022/07/29 04:58:23;;;;;;;;;19.00;18.00;;;;;21.41;63.64;99580.94;6284802;20;2491965;-50
2022/07/29 05:00:52;;;;;;;;;25.00;21.33;;;;;21.41;64.03;99572.75;6285889;20;3573209;-51
2022/07/29 05:03:20;;;;;;;;;24.00;24.00;;;;;21.51;64.47;99582.66;6285654;20;3584635;-53
2022/07/29 05:05:50;;;;;;;;;29.75;23.00;;;;;21.23;64.84;99586.50;6279743;20;3613767;-51
2022/07/29 05:08:18;;;;;;;;;22.00;20.00;;;;;21.28;65.21;99583.28;6316113;20;3584714;-52
2022/07/29 05:10:47;;;;;;;;;22.67;21.33;;;;;21.72;63.23;99595.84;6284889;20;3579479;-50
2022/07/29 05:13:16;;;;;;;;;20.67;18.67;;;;;21.67;64.41;99594.50;6282108;20;3573176;-54
2022/07/29 05:15:45;;;;;;;;;21.00;18.00;;;;;21.98;62.23;99591.09;6280065;20;2831668;-53
2022/07/29 05:18:13;;;;;;;;;16.00;16.00;;;;;21.90;63.41;99591.09;6288342;20;3564854;-50
2022/07/29 05:20:42;;;;;;;;;17.00;17.00;;;;;22.06;62.72;99593.81;6283542;20;3562829;-56
2022/07/29 05:23:12;;;;;;;;;15.50;15.50;;;;;22.22;61.98;99592.16;6314958;20;2815887;-51
2022/07/29 05:25:41;;;;;;;;;15.00;15.00;;;;;22.43;60.30;99592.47;6281774;20;3546097;-55
2022/07/29 05:28:12;;;;;;;;;15.33;15.33;;;;;22.66;60.29;99587.13;6283260;20;2491943;-52
2022/07/29 05:30:40;;;;;;;;;19.67;18.00;;;;;22.73;60.10;99590.03;6316229;20;3562842;-55
2022/07/29 05:33:10;;;;;;;;;19.00;18.00;;;;;22.87;59.59;99592.03;6281152;20;2831891;-51
2022/07/29 05:35:59;;;;;;;;;17.00;17.00;;;;;23.24;58.86;99596.03;6283507;20;2832537;-52
2022/07/29 05:38:29;;;;;;;;;19.33;17.33;;;;;23.30;58.46;99597.19;6285129;20;3575366;-52
2022/07/29 05:40:59;;;;;;;;;17.50;17.00;;;;;23.53;58.32;99597.25;6283084;20;2831499;-50
2022/07/29 05:43:29;;;;;;;;;18.33;17.00;;;;;23.63;57.89;99593.22;6282165;20;2841944;-51
2022/07/29 05:45:58;;;;;;;;;19.00;17.67;;;;;23.93;57.66;99604.38;6316731;20;3571092;-56
2022/07/29 05:48:27;;;;;;;;;21.00;16.50;;;;;23.97;57.13;99599.38;6282159;20;2820172;-54
2022/07/29 05:50:56;;;;;;;;;15.00;15.00;;;;;24.13;56.89;99593.75;6282353;20;2808022;-52
2022/07/29 05:53:24;;;;;;;;;19.00;14.00;;;;;24.29;56.08;99593.63;6283831;20;3542426;-50
2022/07/29 05:55:53;;;;;;;;;18.00;17.33;;;;;24.63;55.43;99589.53;6317847;20;3550317;-52
2022/07/29 05:58:21;;;;;;;;;18.00;16.33;;;;;24.85;54.36;99593.25;6313939;20;3563777;-49
2022/07/29 06:00:50;;;;;;;;;18.50;18.50;;;;;24.61;54.16;99594.38;6281575;20;2835771;-51
2022/07/29 06:03:19;;;;;;;;;16.00;14.50;;;;;24.59;53.78;99593.69;6287935;20;2492373;-52
2022/07/29 06:05:47;;;;;;;;;17.00;17.00;;;;;25.01;53.81;99592.19;6313675;20;2831533;-54
2022/07/29 06:08:17;;;;;;;;;20.00;15.00;;;;;25.30;52.12;99591.34;6277536;20;2485710;-53
2022/07/29 06:10:45;;;;;;;;;20.00;20.00;;;;;25.32;51.95;99593.91;6317798;20;3572133;-56
2022/07/29 06:13:15;;;;;;;;;17.50;17.50;;;;;25.57;51.33;99597.19;6280342;20;2831631;-52
2022/07/29 06:15:44;;;;;;;;;20.67;19.00;;;;;25.65;52.31;99593.47;6281017;20;3564844;-55
2022/07/29 06:18:13;;;;;;;;;19.00;19.00;;;;;25.79;51.28;99607.16;6282564;20;3587821;-54
2022/07/29 06:20:42;;;;;;;;;20.00;18.67;;;;;25.78;51.38;99604.63;6282892;20;3576268;-56
2022/07/29 06:23:11;;;;;;;;;17.33;16.00;;;;;26.02;50.75;99600.66;6283490;20;2491941;-52
2022/07/29 06:25:41;;;;;;;;;20.00;18.67;;;;;26.27;50.97;99606.59;6309878;20;3539792;-52
2022/07/29 06:28:10;;;;;;;;;18.67;18.67;;;;;26.23;50.13;99611.66;6280228;20;2838902;-54
2022/07/29 06:30:40;;;;;;;;;17.00;15.67;;;;;25.88;50.80;99610.66;6315613;20;3560711;-55
2022/07/29 06:33:09;;;;;;;;;19.00;17.67;;;;;25.98;50.81;99618.59;6282965;20;3570849;-53
2022/07/29 06:35:38;;;;;;;;;18.00;17.00;;;;;26.00;51.17;99620.09;6283614;20;3569033;-54
2022/07/29 06:38:11;;;;;;;;;20.33;18.67;;;;;25.95;51.17;99625.34;6283260;20;3583606;-54
2022/07/29 06:41:00;;;;;;;;;21.00;21.00;;;;;26.42;50.54;99629.38;6283807;20;3582518;-51
2022/07/29 06:43:41;;;;;;;;;19.67;18.67;;;;;26.47;50.55;99624.13;6285014;20;3561747;-54
2022/07/29 06:46:21;;;;;;;;;21.00;17.67;;;;;26.72;49.88;99626.47;6280676;20;3561670;-51
2022/07/29 06:48:51;;;;;;;;;18.33;17.33;;;;;26.98;48.57;99624.97;6287347;20;3564803;-54
2022/07/29 06:51:21;;;;;;;;;17.00;17.00;;;;;27.21;48.41;99632.97;6285158;20;3559714;-52
2022/07/29 06:53:53;;;;;;;;;20.00;19.67;;;;;27.68;47.52;99634.88;6279029;20;3600329;-53
2022/07/29 06:56:32;;;;;;;;;18.00;18.00;;;;;27.93;46.72;99634.34;6283572;20;3561757;-54
2022/07/29 06:59:09;;;;;;;;;15.67;15.67;;;;;28.09;46.19;99636.69;6284101;20;3554426;-52
2022/07/29 07:01:41;;;;;;;;;19.33;19.33;;;;;28.35;46.52;99635.03;6285675;20;3563786;-53
2022/07/29 07:04:12;;;;;;;;;18.00;18.00;;;;;28.71;45.48;99633.81;6281338;20;2833645;-56
2022/07/29 07:06:42;;;;;;;;;19.67;19.67;;;;;29.10;44.10;99635.69;6313898;20;3571080;-54
2022/07/29 07:09:11;;;;;;;;;20.00;17.33;;;;;29.65;43.95;99635.28;6284392;20;3562978;-55
2022/07/29 07:11:39;;;;;;;;;18.33;18.33;;;;;29.45;42.78;99632.59;6279382;20;3566476;-57
2022/07/29 07:14:08;;;;;;;;;20.00;20.00;;;;;29.82;43.55;99639.25;6284501;20;3575227;-53
2022/07/29 07:16:36;;;;;;;;;16.67;14.00;;;;;29.73;42.41;99643.38;6284466;20;3542975;-52
2022/07/29 07:19:05;;;;;;;;;17.33;17.33;;;;;30.31;41.77;99642.41;6284126;20;3565961;-55
2022/07/29 07:21:34;;;;;;;;;20.67;18.67;;;;;30.26;42.08;99637.53;6284523;20;3566921;-52
2022/07/29 07:24:04;;;;;;;;;17.67;17.67;;;;;30.02;42.31;99635.50;6281793;20;3564845;-52
2022/07/29 07:26:32;;;;;;;;;19.67;19.67;;;;;30.88;40.39;99636.81;6283232;20;3579387;-53
2022/07/29 07:29:01;;;;;;;;;18.00;18.00;;;;;30.76;40.60;99634.78;6283203;20;3574167;-54
2022/07/29 07:31:30;;;;;;;;;22.33;18.00;;;;;30.65;41.34;99629.97;6284621;20;3573241;-49
2022/07/29 07:33:58;;;;;;;;;17.00;17.00;;;;;31.26;39.75;99620.84;6282554;20;3575227;-50
2022/07/29 07:36:27;;;;;;;;;15.33;15.33;;;;;31.34;39.85;99627.16;6281926;20;3548209;-58
2022/07/29 07:38:55;;;;;;;;;16.00;16.00;;;;;31.40;40.31;99629.03;6286580;20;3553488;-58
2022/07/29 07:41:24;;;;;;;;;16.67;16.33;;;;;31.09;40.24;99636.38;6286241;20;3554461;-57
2022/07/29 07:43:59;;;;;;;;;18.00;17.00;;;;;30.70;40.75;99635.69;6288917;20;3567074;-52
2022/07/29 07:46:28;;;;;;;;;20.00;19.00;;;;;31.12;40.89;99638.69;6286347;20;3579406;-58
2022/07/29 07:48:56;;;;;;;;;17.50;15.50;;;;;31.76;38.64;99632.84;6288183;20;2824243;-49
2022/07/29 07:51:25;;;;;;;;;18.67;17.00;;;;;32.02;38.52;99629.72;6287891;20;3548371;-54
2022/07/29 07:53:53;;;;;;;;;14.00;14.00;;;;;31.81;38.99;99628.28;6285537;20;3533577;-52
2022/07/29 07:56:24;;;;;;;;;16.00;16.00;;;;;31.49;40.10;99622.06;6320893;20;3554500;-53
2022/07/29 07:58:53;;;;;;;;;16.00;16.00;;;;;31.85;39.34;99623.09;6288326;20;3553670;-56
2022/07/29 08:01:22;;;;;;;;;17.33;17.33;;;;;31.99;38.73;99619.06;6277317;20;3565916;-56
2022/07/29 08:03:51;;;;;;;;;13.33;12.00;;;;;31.88;38.79;99626.25;6289982;20;2483643;-54
2022/07/29 08:06:19;;;;;;;;;16.33;14.67;;;;;31.79;38.49;99624.06;6316676;20;3556692;-53
2022/07/29 08:08:48;;;;;;;;;17.33;17.33;;;;;32.67;37.21;99628.91;6285229;20;3557647;-49
2022/07/29 08:11:17;;;;;;;;;13.00;12.67;;;;;32.53;37.75;99631.09;6288706;20;3533627;-51
2022/07/29 08:13:47;;;;;;;;;15.00;15.00;;;;;32.41;37.28;99632.94;6315071;20;3542192;-54
2022/07/29 08:16:15;;;;;;;;;16.00;14.00;;;;;32.86;36.81;99624.09;6318801;20;3550279;-55
2022/07/29 08:18:45;;;;;;;;;14.00;14.00;;;;;32.84;36.88;99629.06;6289081;20;3546187;-53
2022/07/29 08:21:16;;;;;;;;;15.33;14.67;;;;;32.98;36.29;99627.72;6318849;20;3543020;-55
2022/07/29 08:23:48;;;;;;;;;16.00;14.00;;;;;33.14;35.79;99631.72;6315128;20;2812778;-55
2022/07/29 08:26:27;;;;;;;;;18.67;17.33;;;;;32.88;36.95;99626.63;6290001;20;3566339;-56
2022/07/29 08:28:56;;;;;;;;;17.00;16.00;;;;;33.23;36.17;99623.88;6284516;20;2827393;-53
2022/07/29 08:31:25;;;;;;;;;15.33;15.00;;;;;32.92;36.33;99625.91;6316658;20;3550399;-54
2022/07/29 08:33:55;;;;;;;;;18.00;16.33;;;;;33.86;35.71;99627.69;6320628;20;3556559;-54
2022/07/29 08:36:26;;;;;;;;;15.50;15.50;;;;;33.54;35.49;99621.75;6281326;20;2821143;-52
2022/07/29 08:38:55;;;;;;;;;18.33;14.67;;;;;33.91;34.81;99635.31;6282716;20;3548407;-54
2022/07/29 08:41:24;;;;;;;;;16.67;16.67;;;;;33.79;35.25;99635.34;6286467;20;3563778;-57
2022/07/29 08:43:53;;;;;;;;;17.50;16.00;;;;;33.08;36.02;99631.88;6283413;20;2829415;-55
2022/07/29 08:46:23;;;;;;;;;15.67;15.33;;;;;33.40;35.50;99630.34;6287102;20;3549192;-57
2022/07/29 08:48:53;;;;;;;;;14.33;14.33;;;;;33.86;34.59;99633.25;6286100;20;3539834;-55
2022/07/29 08:51:22;;;;;;;;;16.00;16.00;;;;;33.56;35.06;99620.41;6311628;20;2826388;-54
2022/07/29 08:53:51;;;;;;;;;15.67;14.33;;;;;33.68;34.99;99628.75;6284802;20;3528344;-57
2022/07/29 08:56:20;;;;;;;;;16.67;16.00;;;;;33.84;35.12;99619.59;6287185;20;3568970;-59
2022/07/29 08:58:50;;;;;;;;;18.50;15.50;;;;;33.95;34.58;99619.78;6282271;20;2827424;-59
2022/07/29 09:01:27;;;;;;;;;15.00;15.00;;;;;34.06;34.69;99616.97;6289728;20;3541883;-56
2022/07/29 09:04:10;;;;;;;;;17.00;16.00;;;;;34.43;33.65;99624.03;6277618;20;2837781;-59
2022/07/29 09:06:46;;;;;;;;;17.00;16.67;;;;;33.54;35.12;99607.81;6285466;20;3564835;-54
2022/07/29 09:09:15;;;;;;;;;15.33;14.67;;;;;34.33;34.20;99612.69;6287047;20;3539804;-57
2022/07/29 09:11:44;;;;;;;;;15.33;15.33;;;;;33.38;34.88;99609.41;6282859;20;3550313;-58
2022/07/29 09:14:15;;;;;;;;;23.67;19.33;;;;;34.03;34.27;99611.03;6283521;20;3579465;-55
2022/07/29 09:16:56;;;;;;;;;15.67;15.00;;;;;34.28;33.72;99608.75;6316465;20;3548161;-54
2022/07/29 09:19:36;;;;;;;;;14.00;14.00;;;;;35.11;32.83;99611.75;6287532;20;3538792;-52
2022/07/29 09:22:12;;;;;;;;;14.00;12.67;;;;;34.68;32.49;99616.13;6287765;20;3514807;-56
2022/07/29 09:24:46;;;;;;;;;12.00;12.00;;;;;35.29;31.75;99619.00;6319419;20;3535643;-59
2022/07/29 09:27:25;;;;;;;;;11.00;11.00;;;;;35.31;31.73;99616.78;6317158;20;3526293;-59
2022/07/29 09:30:13;;;;;;;;;12.00;12.00;;;;;33.73;32.94;99606.56;6311608;20;3511716;-60
2022/07/29 09:33:03;;;;;;;;;9.00;9.00;;;;;33.84;33.17;99597.31;6312155;20;3466905;-58
2022/07/29 09:35:31;;;;;;;;;14.67;13.00;;;;;33.97;32.46;99598.94;6316057;20;2483720;-58
2022/07/29 09:38:13;;;;;;;;;12.33;12.33;;;;;34.79;31.92;99605.97;6316541;20;3523166;-56
2022/07/29 09:41:00;;;;;;;;;11.67;11.67;;;;;34.48;30.87;99599.00;6315335;20;2479486;-54
2022/07/29 09:43:34;;;;;;;;;13.00;13.00;;;;;34.30;31.75;99595.38;6316749;20;3532641;-58
2022/07/29 09:46:13;;;;;;;;;11.00;11.00;;;;;34.46;31.99;99592.84;6316929;20;3523137;-54
2022/07/29 09:48:42;;;;;;;;;11.67;11.67;;;;;34.83;30.78;99592.34;6316225;20;2484015;-55
2022/07/29 09:51:20;;;;;;;;;14.00;14.00;;;;;34.59;32.20;99586.94;6315542;20;2807596;-57
2022/07/29 09:53:57;;;;;;;;;12.33;10.33;;;;;34.70;29.96;99588.78;6283576;20;3506544;-57
2022/07/29 09:56:42;;;;;;;;;9.33;9.33;;;;;34.49;29.70;99578.38;6284470;20;2758710;-56
2022/07/29 09:59:11;;;;;;;;;12.33;12.33;;;;;33.77;30.61;99579.88;6318126;20;2483586;-58
2022/07/29 10:01:40;;;;;;;;;11.00;10.00;;;;;34.90;30.03;99585.47;6318024;20;2483586;-59
2022/07/29 10:04:09;;;;;;;;;13.33;11.67;;;;;34.82;30.19;99580.34;6312960;20;3512908;-55
2022/07/29 10:07:02;;;;;;;;;13.00;11.33;;;;;34.83;30.16;99572.81;6308359;20;3527500;-53
2022/07/29 10:09:33;;;;;;;;;9.33;9.33;;;;;35.16;28.18;99575.53;6276690;20;3486681;-55
2022/07/29 10:12:15;;;;;;;;;10.00;10.00;;;;;35.15;28.07;99573.88;6312562;20;3507603;-59
2022/07/29 10:14:44;;;;;;;;;10.67;10.67;;;;;35.33;28.32;99574.63;6282498;20;3508646;-58
2022/07/29 10:17:18;;;;;;;;;8.71;8.00;;;;;35.41;27.29;99571.38;6341355;20;2757537;-59
2022/07/29 10:19:48;;;;;;;;;9.33;9.33;;;;;35.82;27.44;99566.28;6323254;20;2760822;-57
2022/07/29 10:22:17;;;;;;;;;7.00;7.00;;;;;35.67;27.44;99566.13;6311049;20;3466009;-58
2022/07/29 10:25:07;;;;;;;;;4.33;4.33;;;;;35.95;27.24;99565.88;6313720;20;2742970;-60
2022/07/29 10:27:37;;;;;;;;;10.00;10.00;;;;;35.67;27.07;99568.91;6311924;20;3503501;-59
2022/07/29 10:30:07;;;;;;;;;9.33;8.00;;;;;35.83;26.55;99560.44;6287290;20;2749215;-58
2022/07/29 10:33:14;;;;;;;;;8.67;8.67;;;;;34.87;27.68;99563.66;6317049;20;2483754;-59
2022/07/29 10:36:35;;;;;;;;;11.00;11.00;;;;;35.14;27.19;99554.56;6318495;20;2787773;-60
2022/07/29 10:39:38;;;;;;;;;8.00;8.00;;;;;34.94;27.71;99557.88;6322099;20;2754429;-60
2022/07/29 10:42:30;;;;;;;;;8.67;8.00;;;;;35.20;26.85;99547.09;6312069;20;2755466;-59
2022/07/29 10:45:04;;;;;;;;;13.33;12.33;;;;;35.20;28.20;99555.47;6316938;20;3518966;-59
2022/07/29 10:47:33;;;;;;;;;6.67;6.33;;;;;34.50;27.64;99555.00;6316210;20;2748200;-57
2022/07/29 10:50:07;;;;;;;;;12.00;11.00;;;;;34.88;27.70;99556.13;6309725;20;2775279;-58
2022/07/29 10:52:58;;;;;;;;;12.00;11.00;;;;;34.89;28.19;99553.09;6311838;20;3508652;-57
2022/07/29 10:55:44;;;;;;;;;10.67;10.00;;;;;35.49;26.67;99544.94;6286130;20;2483642;-56
2022/07/29 10:58:18;;;;;;;;;9.67;9.67;;;;;35.11;27.42;99547.56;6314956;20;3493057;-55
2022/07/29 11:00:53;;;;;;;;;10.00;10.00;;;;;34.78;27.72;99545.66;6313697;20;3505494;-59
2022/07/29 11:03:55;;;;;;;;;9.33;9.33;;;;;34.82;28.34;99544.06;6284886;20;3482568;-58
2022/07/29 11:07:04;;;;;;;;;12.00;11.00;;;;;35.74;26.94;99536.88;6309737;20;3401319;-56
2022/07/29 11:09:32;;;;;;;;;10.33;10.33;;;;;35.45;27.14;99541.84;6313008;20;3506482;-59
2022/07/29 11:12:39;;;;;;;;;10.67;10.67;;;;;35.42;27.35;99539.56;6311831;20;3513760;-60
2022/07/29 11:15:20;;;;;;;;;10.67;9.33;;;;;34.67;28.31;99533.53;6320930;20;2771110;-57
2022/07/29 11:17:57;;;;;;;;;11.00;9.33;;;;;35.95;27.13;99537.91;6317911;20;2773274;-59
2022/07/29 11:20:47;;;;;;;;;9.33;9.33;;;;;35.81;26.54;99525.47;6313199;20;3482686;-59
2022/07/29 11:23:35;;;;;;;;;9.00;9.00;;;;;36.35;25.30;99525.44;6328904;20;2748252;-57
2022/07/29 11:26:24;;;;;;;;;10.00;8.00;;;;;35.87;26.17;99524.44;6313187;20;2483601;-59
2022/07/29 11:29:21;;;;;;;;;13.00;11.00;;;;;35.42;27.96;99521.94;6307910;20;2793995;-59
2022/07/29 11:31:55;;;;;;;;;11.00;9.00;;;;;36.37;26.24;99516.78;6283637;20;3492032;-59
2022/07/29 11:34:30;;;;;;;;;8.33;7.00;;;;;36.25;26.21;99520.59;6314142;20;2759626;-60
2022/07/29 11:37:08;;;;;;;;;11.00;11.00;;;;;36.40;26.04;99517.06;6309880;20;3502435;-59
2022/07/29 11:39:54;;;;;;;;;10.00;10.00;;;;;36.40;26.00;99511.47;6284119;20;3505427;-58